Time;durP1;ratioP1;P1;durP2;ratioP2;P2;SDS_P1;SDS_P2;PMS_P1;PMS_P2;Temp;Humidity;BMP_temperature;BMP_pressure;BME280_temperature;BME280_humidity;BME280_pressure;Samples;Min_cycle;Max_cycle;Signal;HPM_P1;HPM_P2
2021/05/31 00:02:01;;;;;;;6.22;0.57;;;;;;;;;;4896838;29;20044;-61
2021/05/31 00:04:27;;;;;;;0.00;0.00;;;;;;;;;;4904150;29;22036;-59
2021/05/31 00:07:13;;;;;;;3.85;0.85;;;;;;;;;;4906533;29;20345;-59
2021/05/31 00:09:44;;;;;;;0.00;0.00;;;;;;;;;;4908119;29;20440;-60
2021/05/31 00:12:16;;;;;;;0.00;0.00;;;;;;;;;;4908168;29;20035;-60
2021/05/31 00:14:42;;;;;;;0.25;0.25;;;;;;;;;;4921794;28;20045;-59
2021/05/31 00:17:11;;;;;;;0.43;0.43;;;;;;;;;;4904430;29;20040;-59
2021/05/31 00:19:37;;;;;;;0.00;0.00;;;;;;;;;;4908687;29;20675;-59
2021/05/31 00:22:03;;;;;;;0.08;0.08;;;;;;;;;;4905888;29;20219;-59
2021/05/31 00:24:29;;;;;;;0.30;0.22;;;;;;;;;;4922758;28;20036;-59
2021/05/31 00:26:56;;;;;;;0.10;0.10;;;;;;;;;;4907589;29;20518;-60
2021/05/31 00:29:25;;;;;;;0.40;0.40;;;;;;;;;;4909355;29;20042;-60
2021/05/31 00:32:10;;;;;;;1.90;0.45;;;;;;;;;;4912995;29;20110;-59
2021/05/31 00:34:36;;;;;;;0.45;0.30;;;;;;;;;;4892861;29;20043;-58
2021/05/31 00:37:04;;;;;;;0.35;0.35;;;;;;;;;;4913931;28;20424;-60
2021/05/31 00:39:30;;;;;;;0.22;0.22;;;;;;;;;;4913571;29;20652;-59
2021/05/31 00:42:04;;;;;;;0.08;0.08;;;;;;;;;;4912454;29;20079;-60
2021/05/31 00:44:29;;;;;;;0.17;0.17;;;;;;;;;;4914230;29;20043;-60
2021/05/31 00:46:59;;;;;;;0.38;0.38;;;;;;;;;;4887895;29;20051;-60
2021/05/31 00:49:27;;;;;;;0.10;0.10;;;;;;;;;;4913872;29;20039;-59
2021/05/31 00:51:53;;;;;;;0.30;0.30;;;;;;;;;;4913132;28;20175;-60
2021/05/31 00:54:19;;;;;;;1.85;0.45;;;;;;;;;;4913455;29;20039;-60
2021/05/31 00:56:45;;;;;;;0.52;0.52;;;;;;;;;;4890078;29;20157;-59
2021/05/31 00:59:11;;;;;;;0.00;0.00;;;;;;;;;;4893766;29;20511;-59
2021/05/31 01:01:42;;;;;;;1.52;0.60;;;;;;;;;;4914472;28;21042;-59
2021/05/31 01:04:08;;;;;;;0.10;0.10;;;;;;;;;;4900836;29;20071;-60
2021/05/31 01:06:43;;;;;;;1.45;0.43;;;;;;;;;;4899849;29;20047;-59
2021/05/31 01:09:09;;;;;;;0.00;0.00;;;;;;;;;;4888267;29;20039;-59
2021/05/31 01:11:38;;;;;;;0.20;0.20;;;;;;;;;;4886381;29;20455;-60
2021/05/31 01:14:16;;;;;;;0.10;0.10;;;;;;;;;;4885744;29;20052;-63
2021/05/31 01:16:48;;;;;;;1.65;1.55;;;;;;;;;;4889362;29;20031;-60
2021/05/31 01:19:19;;;;;;;0.25;0.25;;;;;;;;;;4902844;29;20404;-60
2021/05/31 01:21:55;;;;;;;0.00;0.00;;;;;;;;;;4888182;29;20036;-59
2021/05/31 01:24:39;;;;;;;0.20;0.20;;;;;;;;;;4871792;29;20091;-59
2021/05/31 01:27:11;;;;;;;0.60;0.60;;;;;;;;;;4898968;29;20043;-59
2021/05/31 01:29:43;;;;;;;0.10;0.10;;;;;;;;;;4888329;29;20036;-60
2021/05/31 01:32:13;;;;;;;2.35;1.20;;;;;;;;;;4872453;29;20662;-59
2021/05/31 01:34:45;;;;;;;0.00;0.00;;;;;;;;;;4886926;29;20032;-60
2021/05/31 01:37:16;;;;;;;0.00;0.00;;;;;;;;;;4887747;29;20059;-60
2021/05/31 01:39:51;;;;;;;0.15;0.15;;;;;;;;;;4888273;29;20032;-59
2021/05/31 01:42:20;;;;;;;0.00;0.00;;;;;;;;;;4887806;29;20040;-60
2021/05/31 01:44:48;;;;;;;0.00;0.00;;;;;;;;;;4887572;29;20051;-60
2021/05/31 01:47:17;;;;;;;0.00;0.00;;;;;;;;;;4893377;29;20619;-60
2021/05/31 01:49:44;;;;;;;0.40;0.32;;;;;;;;;;4906364;29;20036;-59
2021/05/31 01:52:10;;;;;;;0.10;0.10;;;;;;;;;;4922086;28;20115;-60
2021/05/31 01:54:39;;;;;;;2.75;0.60;;;;;;;;;;4906673;29;20024;-60
2021/05/31 01:57:08;;;;;;;0.30;0.30;;;;;;;;;;4920875;28;20035;-59
2021/05/31 01:59:34;;;;;;;0.25;0.25;;;;;;;;;;4906735;29;20031;-60
2021/05/31 02:02:02;;;;;;;0.10;0.10;;;;;;;;;;4888578;29;20143;-59
2021/05/31 02:04:31;;;;;;;0.70;0.70;;;;;;;;;;4905856;29;20038;-60
2021/05/31 02:06:56;;;;;;;2.00;1.02;;;;;;;;;;4905147;29;20040;-60
2021/05/31 02:09:23;;;;;;;0.00;0.00;;;;;;;;;;4871988;29;20161;-59
2021/05/31 02:11:48;;;;;;;0.57;0.25;;;;;;;;;;4902611;29;20115;-60
2021/05/31 02:14:36;;;;;;;0.75;0.75;;;;;;;;;;4891375;29;20496;-59
2021/05/31 02:17:14;;;;;;;0.50;0.50;;;;;;;;;;4919885;28;20047;-59
2021/05/31 02:19:40;;;;;;;0.05;0.05;;;;;;;;;;4902019;29;20032;-59
2021/05/31 02:22:09;;;;;;;0.38;0.38;;;;;;;;;;4905963;29;20158;-60
2021/05/31 02:24:41;;;;;;;0.05;0.05;;;;;;;;;;4912288;28;20040;-60
2021/05/31 02:27:06;;;;;;;0.40;0.38;;;;;;;;;;4905209;29;20039;-59
2021/05/31 02:29:32;;;;;;;2.35;0.38;;;;;;;;;;4902894;29;20047;-59
2021/05/31 02:31:58;;;;;;;0.73;0.73;;;;;;;;;;4904516;29;20031;-59
2021/05/31 02:34:27;;;;;;;0.63;0.63;;;;;;;;;;4921921;28;20029;-59
2021/05/31 02:36:56;;;;;;;0.63;0.63;;;;;;;;;;4907612;29;20035;-60
2021/05/31 02:39:24;;;;;;;0.35;0.35;;;;;;;;;;4915304;29;20042;-60
2021/05/31 02:41:53;;;;;;;0.30;0.30;;;;;;;;;;4910094;29;20543;-59
2021/05/31 02:44:18;;;;;;;0.10;0.10;;;;;;;;;;4894130;29;20062;-61
2021/05/31 02:46:44;;;;;;;0.00;0.00;;;;;;;;;;4877021;29;20044;-60
2021/05/31 02:49:12;;;;;;;0.20;0.20;;;;;;;;;;4909698;29;20499;-59
2021/05/31 02:51:40;;;;;;;0.10;0.10;;;;;;;;;;4894268;29;20048;-60
2021/05/31 02:54:09;;;;;;;0.03;0.03;;;;;;;;;;4910835;29;20452;-60
2021/05/31 02:56:38;;;;;;;0.00;0.00;;;;;;;;;;4909494;29;20040;-59
2021/05/31 02:59:06;;;;;;;0.40;0.40;;;;;;;;;;4908049;29;20158;-59
2021/05/31 03:01:33;;;;;;;0.80;0.80;;;;;;;;;;4908524;29;20041;-60
2021/05/31 03:03:59;;;;;;;0.60;0.60;;;;;;;;;;4909363;29;20032;-59
2021/05/31 03:06:24;;;;;;;1.15;1.15;;;;;;;;;;4907987;29;20119;-59
2021/05/31 03:08:50;;;;;;;0.15;0.15;;;;;;;;;;4908318;29;20066;-60
2021/05/31 03:11:18;;;;;;;3.47;2.40;;;;;;;;;;4902615;29;20043;-59
2021/05/31 03:13:46;;;;;;;1.00;0.70;;;;;;;;;;4907605;29;20035;-59
2021/05/31 03:16:13;;;;;;;0.70;0.70;;;;;;;;;;4889734;29;20051;-60
2021/05/31 03:18:38;;;;;;;0.15;0.15;;;;;;;;;;4913766;29;20036;-60
2021/05/31 03:21:05;;;;;;;0.45;0.45;;;;;;;;;;4908885;29;20879;-61
2021/05/31 03:23:30;;;;;;;1.65;1.30;;;;;;;;;;4893450;29;20122;-60
2021/05/31 03:25:56;;;;;;;0.17;0.17;;;;;;;;;;4908743;29;20196;-59
2021/05/31 03:28:22;;;;;;;0.88;0.88;;;;;;;;;;4908697;29;20047;-59
2021/05/31 03:30:50;;;;;;;0.10;0.10;;;;;;;;;;4891369;29;20043;-59
2021/05/31 03:33:16;;;;;;;0.47;0.47;;;;;;;;;;4892779;29;20044;-60
2021/05/31 03:35:41;;;;;;;1.02;0.50;;;;;;;;;;4905064;29;21006;-60
2021/05/31 03:38:12;;;;;;;1.00;1.00;;;;;;;;;;4907410;29;20028;-59
2021/05/31 03:40:37;;;;;;;0.57;0.57;;;;;;;;;;4910366;29;20042;-60
2021/05/31 03:43:03;;;;;;;0.00;0.00;;;;;;;;;;4908808;29;20040;-60
2021/05/31 03:45:29;;;;;;;0.73;0.73;;;;;;;;;;4909527;29;20036;-59
2021/05/31 03:47:55;;;;;;;1.45;0.70;;;;;;;;;;4908653;29;20048;-59
2021/05/31 03:50:21;;;;;;;0.05;0.05;;;;;;;;;;4909364;29;20078;-60
2021/05/31 03:52:49;;;;;;;0.10;0.10;;;;;;;;;;4908787;29;20020;-61
2021/05/31 03:55:14;;;;;;;1.92;1.75;;;;;;;;;;4910294;29;21028;-60
2021/05/31 03:57:40;;;;;;;0.10;0.10;;;;;;;;;;4906423;29;20036;-60
2021/05/31 04:00:08;;;;;;;0.47;0.47;;;;;;;;;;4908720;29;20032;-60
2021/05/31 04:02:34;;;;;;;0.20;0.20;;;;;;;;;;4908028;29;20117;-59
2021/05/31 04:05:03;;;;;;;0.32;0.32;;;;;;;;;;4908952;28;20028;-60
2021/05/31 04:12:57;;;;;;;0.25;0.25;;;;;;;;;;4906811;29;20040;-60
2021/05/31 04:15:27;;;;;;;0.82;0.82;;;;;;;;;;4893757;29;20049;-60
2021/05/31 04:17:55;;;;;;;0.00;0.00;;;;;;;;;;4909380;29;20596;-60
2021/05/31 04:20:22;;;;;;;1.35;1.25;;;;;;;;;;4922109;28;20055;-60
2021/05/31 04:22:47;;;;;;;0.43;0.43;;;;;;;;;;4906745;29;20035;-59
2021/05/31 04:25:16;;;;;;;0.25;0.25;;;;;;;;;;4909443;29;20063;-59
2021/05/31 04:27:41;;;;;;;0.77;0.77;;;;;;;;;;4907521;29;20062;-60
2021/05/31 04:30:07;;;;;;;0.08;0.08;;;;;;;;;;4908812;29;22021;-60
2021/05/31 04:32:33;;;;;;;0.30;0.30;;;;;;;;;;4906952;29;20488;-59
2021/05/31 04:35:02;;;;;;;0.73;0.73;;;;;;;;;;4908296;29;20167;-59
2021/05/31 04:37:30;;;;;;;0.88;0.45;;;;;;;;;;4907530;29;20168;-60
2021/05/31 04:39:56;;;;;;;0.30;0.30;;;;;;;;;;4923376;29;20074;-60
2021/05/31 04:42:24;;;;;;;0.13;0.13;;;;;;;;;;4907212;29;20122;-60
2021/05/31 04:44:54;;;;;;;0.40;0.40;;;;;;;;;;4907085;29;20024;-59
2021/05/31 04:47:20;;;;;;;0.00;0.00;;;;;;;;;;4914012;29;20055;-60
2021/05/31 04:49:46;;;;;;;0.10;0.10;;;;;;;;;;4907936;29;20034;-60
2021/05/31 04:52:13;;;;;;;1.45;1.35;;;;;;;;;;4908563;29;20508;-60
2021/05/31 04:54:42;;;;;;;0.82;0.82;;;;;;;;;;4907502;29;21017;-59
2021/05/31 04:57:08;;;;;;;1.05;0.60;;;;;;;;;;4907292;29;20426;-60
2021/05/31 04:59:34;;;;;;;0.20;0.20;;;;;;;;;;4906811;29;20043;-60
2021/05/31 05:02:02;;;;;;;0.40;0.40;;;;;;;;;;4903765;29;20044;-60
2021/05/31 05:04:32;;;;;;;0.68;0.68;;;;;;;;;;4921845;28;20130;-60
2021/05/31 05:06:57;;;;;;;0.20;0.20;;;;;;;;;;4908697;29;20118;-60
2021/05/31 05:09:25;;;;;;;0.38;0.38;;;;;;;;;;4918602;28;20485;-60
2021/05/31 05:11:51;;;;;;;1.75;0.57;;;;;;;;;;4904837;29;20122;-62
2021/05/31 05:14:18;;;;;;;1.65;0.85;;;;;;;;;;4921428;28;20036;-61
2021/05/31 05:16:44;;;;;;;1.98;0.75;;;;;;;;;;4906621;29;20491;-59
2021/05/31 05:19:10;;;;;;;1.02;0.63;;;;;;;;;;4904010;29;20039;-60
2021/05/31 05:21:38;;;;;;;0.20;0.20;;;;;;;;;;4908261;29;20044;-60
2021/05/31 05:24:06;;;;;;;0.35;0.35;;;;;;;;;;4907224;29;20031;-60
2021/05/31 05:26:31;;;;;;;0.10;0.10;;;;;;;;;;4892136;29;20055;-60
2021/05/31 05:28:59;;;;;;;1.52;0.60;;;;;;;;;;4905370;29;20170;-60
2021/05/31 05:31:24;;;;;;;1.85;1.55;;;;;;;;;;4907464;29;20192;-59
2021/05/31 05:33:50;;;;;;;0.00;0.00;;;;;;;;;;4905805;29;20034;-60
2021/05/31 05:36:22;;;;;;;1.10;0.38;;;;;;;;;;4905979;29;20059;-59
2021/05/31 05:42:17;;;;;;;0.35;0.35;;;;;;;;;;4905368;29;21930;-60
2021/05/31 05:47:41;;;;;;;0.22;0.22;;;;;;;;;;4905237;29;21078;-60
2021/05/31 05:49:51;;;;;;;0.30;0.30;;;;;;;;;;4906643;29;20039;-60
2021/05/31 05:52:17;;;;;;;1.65;0.88;;;;;;;;;;4907195;29;20098;-60
2021/05/31 05:54:43;;;;;;;1.88;0.45;;;;;;;;;;4905904;29;20036;-59
2021/05/31 05:57:10;;;;;;;0.10;0.10;;;;;;;;;;4906948;29;20043;-60
2021/05/31 05:59:36;;;;;;;0.73;0.73;;;;;;;;;;4906747;29;20032;-61
2021/05/31 06:02:34;;;;;;;0.20;0.20;;;;;;;;;;4905295;29;20036;-64
2021/05/31 06:05:04;;;;;;;0.20;0.20;;;;;;;;;;4905503;29;20035;-60
2021/05/31 06:07:30;;;;;;;0.08;0.08;;;;;;;;;;4890888;29;20036;-61
2021/05/31 06:09:56;;;;;;;0.30;0.22;;;;;;;;;;4907747;29;20683;-60
2021/05/31 06:12:24;;;;;;;0.22;0.22;;;;;;;;;;4890515;29;20052;-60
2021/05/31 06:14:50;;;;;;;0.60;0.38;;;;;;;;;;4911808;29;20032;-61
2021/05/31 06:17:21;;;;;;;1.50;1.23;;;;;;;;;;4890578;29;20535;-61
2021/05/31 06:19:59;;;;;;;0.25;0.25;;;;;;;;;;4910076;29;20024;-60
2021/05/31 06:22:32;;;;;;;1.75;1.65;;;;;;;;;;4923882;28;20111;-60
2021/05/31 06:24:58;;;;;;;0.68;0.68;;;;;;;;;;4908328;29;20537;-61
2021/05/31 06:27:24;;;;;;;0.40;0.10;;;;;;;;;;4908541;29;20059;-61
2021/05/31 06:29:50;;;;;;;0.20;0.20;;;;;;;;;;4914808;29;20587;-61
2021/05/31 06:32:16;;;;;;;2.22;1.20;;;;;;;;;;4910499;29;20106;-61
2021/05/31 06:34:42;;;;;;;0.45;0.45;;;;;;;;;;4910264;29;20043;-59
2021/05/31 06:37:11;;;;;;;0.15;0.15;;;;;;;;;;4897906;29;20365;-59
2021/05/31 06:39:37;;;;;;;0.30;0.30;;;;;;;;;;4909962;29;20042;-60
2021/05/31 06:42:05;;;;;;;1.35;0.95;;;;;;;;;;4907060;29;20699;-60
2021/05/31 06:44:30;;;;;;;1.02;1.02;;;;;;;;;;4907265;29;20082;-60
2021/05/31 06:46:57;;;;;;;0.70;0.70;;;;;;;;;;4923357;28;20576;-61
2021/05/31 06:49:23;;;;;;;0.65;0.65;;;;;;;;;;4894341;29;20043;-60
2021/05/31 06:51:49;;;;;;;1.52;1.42;;;;;;;;;;4891781;29;20044;-61
2021/05/31 06:54:18;;;;;;;0.52;0.52;;;;;;;;;;4909380;29;20024;-61
2021/05/31 06:56:43;;;;;;;0.95;0.90;;;;;;;;;;4909014;29;20038;-60
2021/05/31 06:59:09;;;;;;;0.60;0.38;;;;;;;;;;4892102;29;20551;-61
2021/05/31 07:01:37;;;;;;;6.13;1.23;;;;;;;;;;4908802;29;20028;-59
2021/05/31 07:04:02;;;;;;;2.63;1.08;;;;;;;;;;4909376;29;20074;-60
2021/05/31 07:06:28;;;;;;;0.57;0.57;;;;;;;;;;4905407;29;20118;-61
2021/05/31 07:08:54;;;;;;;1.33;1.23;;;;;;;;;;4910149;29;20028;-61
2021/05/31 07:11:24;;;;;;;1.65;1.10;;;;;;;;;;4907755;29;21711;-61
2021/05/31 07:13:50;;;;;;;1.55;1.45;;;;;;;;;;4877290;29;20036;-60
2021/05/31 07:16:23;;;;;;;5.57;1.98;;;;;;;;;;4894663;29;20040;-61
2021/05/31 07:18:51;;;;;;;2.47;1.20;;;;;;;;;;4908309;29;20036;-61
2021/05/31 07:21:17;;;;;;;0.73;0.73;;;;;;;;;;4906457;29;20142;-61
2021/05/31 07:23:43;;;;;;;1.42;1.20;;;;;;;;;;4906976;29;20039;-62
2021/05/31 07:26:11;;;;;;;0.68;0.68;;;;;;;;;;4908022;29;20059;-61
2021/05/31 07:28:38;;;;;;;0.38;0.38;;;;;;;;;;4908633;29;20135;-61
2021/05/31 07:31:03;;;;;;;4.30;0.75;;;;;;;;;;4893666;29;20538;-60
2021/05/31 07:33:41;;;;;;;0.73;0.50;;;;;;;;;;4904644;29;20031;-61
2021/05/31 07:36:08;;;;;;;0.43;0.43;;;;;;;;;;4906914;29;20236;-62
2021/05/31 07:38:34;;;;;;;2.88;0.85;;;;;;;;;;4908791;29;20048;-62
2021/05/31 07:41:00;;;;;;;0.80;0.80;;;;;;;;;;4906894;29;20039;-60
2021/05/31 07:43:29;;;;;;;1.50;1.35;;;;;;;;;;4922355;28;20071;-62
2021/05/31 07:45:57;;;;;;;0.70;0.70;;;;;;;;;;4897827;29;20147;-62
2021/05/31 07:48:29;;;;;;;0.82;0.82;;;;;;;;;;4892197;29;20051;-61
2021/05/31 07:51:18;;;;;;;4.07;1.30;;;;;;;;;;4908855;29;20070;-62
2021/05/31 07:53:49;;;;;;;0.20;0.20;;;;;;;;;;4920062;28;20126;-62
2021/05/31 07:56:23;;;;;;;1.75;1.38;;;;;;;;;;4906533;29;20032;-61
2021/05/31 07:58:56;;;;;;;1.13;1.08;;;;;;;;;;4906205;29;20127;-62
2021/05/31 08:01:27;;;;;;;0.28;0.28;;;;;;;;;;4909792;29;20055;-61
2021/05/31 08:03:55;;;;;;;0.30;0.30;;;;;;;;;;4899239;29;20055;-62
2021/05/31 08:06:21;;;;;;;0.45;0.45;;;;;;;;;;4907000;29;20036;-63
2021/05/31 08:08:49;;;;;;;0.75;0.60;;;;;;;;;;4905989;29;20035;-62
2021/05/31 08:11:17;;;;;;;0.50;0.50;;;;;;;;;;4904924;29;20034;-62
2021/05/31 08:13:45;;;;;;;1.40;0.57;;;;;;;;;;4905437;29;20036;-62
2021/05/31 08:16:12;;;;;;;0.70;0.70;;;;;;;;;;4895624;29;20032;-62
2021/05/31 08:18:37;;;;;;;0.90;0.85;;;;;;;;;;4905304;29;20495;-62
2021/05/31 08:21:11;;;;;;;0.55;0.55;;;;;;;;;;4906486;29;20038;-62
2021/05/31 08:23:41;;;;;;;0.03;0.03;;;;;;;;;;4905782;29;20681;-62
2021/05/31 08:26:10;;;;;;;0.57;0.43;;;;;;;;;;4907455;29;20600;-62
2021/05/31 08:28:36;;;;;;;0.30;0.30;;;;;;;;;;4905142;29;20729;-63
2021/05/31 08:31:07;;;;;;;0.52;0.52;;;;;;;;;;4904589;28;20032;-64
2021/05/31 08:33:33;;;;;;;1.17;0.85;;;;;;;;;;4904461;29;20032;-62
2021/05/31 08:35:58;;;;;;;0.20;0.15;;;;;;;;;;4906776;29;20039;-63
2021/05/31 08:38:24;;;;;;;0.35;0.35;;;;;;;;;;4906008;29;20380;-62
2021/05/31 08:40:52;;;;;;;0.35;0.32;;;;;;;;;;4904547;29;20032;-62
2021/05/31 08:43:18;;;;;;;1.38;0.80;;;;;;;;;;4907653;29;20055;-62
2021/05/31 08:45:44;;;;;;;1.27;0.52;;;;;;;;;;4906939;29;20035;-62
2021/05/31 08:48:10;;;;;;;0.40;0.40;;;;;;;;;;4905153;29;20516;-63
2021/05/31 08:50:36;;;;;;;1.63;0.75;;;;;;;;;;4889080;29;20038;-62
2021/05/31 08:53:02;;;;;;;0.13;0.13;;;;;;;;;;4907414;29;20032;-62
2021/05/31 08:55:29;;;;;;;0.65;0.52;;;;;;;;;;4906517;29;20027;-62
2021/05/31 08:57:57;;;;;;;0.30;0.30;;;;;;;;;;4919542;28;20040;-63
2021/05/31 09:00:33;;;;;;;0.75;0.45;;;;;;;;;;4921400;28;20032;-62
2021/05/31 09:03:00;;;;;;;0.30;0.30;;;;;;;;;;4906073;29;20036;-62
2021/05/31 09:05:34;;;;;;;0.22;0.22;;;;;;;;;;4907964;29;20110;-63
2021/05/31 09:08:07;;;;;;;1.00;0.55;;;;;;;;;;4905411;29;20028;-63
2021/05/31 09:10:35;;;;;;;0.73;0.73;;;;;;;;;;4906916;29;20047;-62
2021/05/31 09:13:02;;;;;;;2.63;0.45;;;;;;;;;;4907498;29;22065;-62
2021/05/31 09:15:28;;;;;;;0.38;0.38;;;;;;;;;;4887891;29;20126;-63
2021/05/31 09:17:54;;;;;;;1.13;0.85;;;;;;;;;;4921198;28;20036;-62
2021/05/31 09:20:19;;;;;;;1.08;0.65;;;;;;;;;;4889619;29;20610;-62
2021/05/31 09:22:50;;;;;;;0.88;0.13;;;;;;;;;;4911967;29;20030;-63
2021/05/31 09:25:25;;;;;;;0.20;0.10;;;;;;;;;;4905815;29;20500;-61
2021/05/31 09:27:52;;;;;;;0.28;0.28;;;;;;;;;;4919667;28;20032;-62
2021/05/31 09:30:41;;;;;;;0.00;0.00;;;;;;;;;;4903613;28;20043;-63
2021/05/31 09:33:08;;;;;;;0.20;0.20;;;;;;;;;;4905767;29;20071;-62
2021/05/31 09:35:44;;;;;;;0.38;0.25;;;;;;;;;;4920451;28;20043;-63
2021/05/31 09:38:18;;;;;;;4.53;0.73;;;;;;;;;;4921112;28;20035;-63
2021/05/31 09:41:04;;;;;;;0.98;0.77;;;;;;;;;;4944104;28;20038;-63
2021/05/31 09:43:37;;;;;;;2.80;0.30;;;;;;;;;;4958886;28;20057;-63
2021/05/31 09:46:05;;;;;;;0.15;0.15;;;;;;;;;;4946764;28;20137;-62
2021/05/31 09:48:35;;;;;;;0.28;0.25;;;;;;;;;;4958964;28;20058;-63
2021/05/31 09:51:03;;;;;;;0.28;0.28;;;;;;;;;;4961020;28;20167;-63
2021/05/31 09:53:36;;;;;;;0.40;0.40;;;;;;;;;;4946029;28;20042;-63
2021/05/31 09:56:16;;;;;;;2.45;0.22;;;;;;;;;;4961173;28;20038;-62
2021/05/31 09:58:53;;;;;;;0.77;0.77;;;;;;;;;;4959477;28;20641;-63
2021/05/31 10:01:40;;;;;;;0.30;0.30;;;;;;;;;;4960702;28;20769;-62
2021/05/31 10:04:17;;;;;;;1.08;0.63;;;;;;;;;;4942484;28;20030;-63
2021/05/31 10:06:54;;;;;;;0.30;0.30;;;;;;;;;;4944882;28;20065;-63
2021/05/31 10:09:21;;;;;;;0.63;0.32;;;;;;;;;;4942350;28;20058;-62
2021/05/31 10:11:47;;;;;;;0.22;0.22;;;;;;;;;;4936728;28;20047;-63
2021/05/31 10:14:16;;;;;;;1.13;0.40;;;;;;;;;;4904903;29;20041;-63
2021/05/31 10:16:42;;;;;;;0.10;0.10;;;;;;;;;;4905326;29;20042;-64
2021/05/31 10:19:09;;;;;;;0.40;0.40;;;;;;;;;;4905920;29;20035;-63
2021/05/31 10:21:36;;;;;;;0.00;0.00;;;;;;;;;;4904341;29;20038;-63
2021/05/31 10:24:04;;;;;;;0.20;0.20;;;;;;;;;;4905551;29;20103;-63
2021/05/31 10:26:52;;;;;;;0.00;0.00;;;;;;;;;;4905817;29;20035;-63
2021/05/31 10:29:18;;;;;;;0.00;0.00;;;;;;;;;;4906796;29;20031;-63
2021/05/31 10:31:44;;;;;;;0.63;0.20;;;;;;;;;;4904527;29;20028;-64
2021/05/31 10:34:20;;;;;;;0.43;0.43;;;;;;;;;;4904615;29;20038;-63
2021/05/31 10:36:52;;;;;;;0.05;0.05;;;;;;;;;;4907155;29;20032;-63
2021/05/31 10:39:25;;;;;;;0.35;0.35;;;;;;;;;;4920139;28;20043;-64
2021/05/31 10:42:07;;;;;;;0.40;0.20;;;;;;;;;;4905228;29;20039;-63
2021/05/31 10:44:33;;;;;;;0.30;0.15;;;;;;;;;;4905323;29;20036;-62
2021/05/31 10:47:06;;;;;;;0.43;0.43;;;;;;;;;;4903742;29;20090;-65
2021/05/31 10:49:35;;;;;;;0.20;0.20;;;;;;;;;;4906071;29;20131;-63
2021/05/31 10:52:02;;;;;;;0.40;0.40;;;;;;;;;;4904666;29;20491;-63
2021/05/31 10:54:34;;;;;;;0.20;0.20;;;;;;;;;;4907347;29;20047;-63
2021/05/31 10:57:04;;;;;;;0.08;0.08;;;;;;;;;;4905321;29;20744;-62
2021/05/31 10:59:30;;;;;;;0.10;0.10;;;;;;;;;;4909009;29;20719;-61
2021/05/31 11:01:55;;;;;;;0.03;0.00;;;;;;;;;;4913745;29;20032;-62
2021/05/31 11:04:22;;;;;;;0.32;0.32;;;;;;;;;;4875811;29;20114;-63
2021/05/31 11:06:48;;;;;;;0.05;0.05;;;;;;;;;;4914530;28;20063;-63
2021/05/31 11:09:28;;;;;;;0.00;0.00;;;;;;;;;;4922111;28;20055;-63
2021/05/31 11:11:57;;;;;;;0.00;0.00;;;;;;;;;;4909742;29;20043;-62
2021/05/31 11:14:34;;;;;;;0.00;0.00;;;;;;;;;;4908032;29;20035;-63
2021/05/31 11:17:12;;;;;;;1.38;0.03;;;;;;;;;;4919892;28;20032;-62
2021/05/31 11:19:39;;;;;;;0.85;0.32;;;;;;;;;;4907417;29;22078;-63
2021/05/31 11:22:33;;;;;;;0.00;0.00;;;;;;;;;;4913032;29;20055;-62
2021/05/31 11:25:03;;;;;;;0.40;0.40;;;;;;;;;;4923315;29;20043;-62
2021/05/31 11:27:29;;;;;;;0.00;0.00;;;;;;;;;;4904851;29;20040;-63
2021/05/31 11:29:57;;;;;;;0.13;0.13;;;;;;;;;;4909793;29;20031;-64
2021/05/31 11:32:26;;;;;;;0.15;0.15;;;;;;;;;;4907978;29;20035;-63
2021/05/31 11:34:55;;;;;;;3.40;0.52;;;;;;;;;;4909640;29;20068;-63
2021/05/31 11:37:26;;;;;;;0.75;0.55;;;;;;;;;;4907619;29;20036;-63
2021/05/31 11:39:54;;;;;;;0.20;0.10;;;;;;;;;;4909782;29;20777;-62
2021/05/31 11:42:20;;;;;;;0.00;0.00;;;;;;;;;;4909414;29;20051;-62
2021/05/31 11:44:52;;;;;;;0.00;0.00;;;;;;;;;;4907999;29;20038;-64
2021/05/31 11:47:24;;;;;;;0.00;0.00;;;;;;;;;;5131834;23;20293;31
2021/05/31 11:49:53;;;;;;;0.10;0.10;;;;;;;;;;4940776;28;20085;-61
2021/05/31 11:52:18;;;;;;;0.00;0.00;;;;;;;;;;4967233;28;20789;-62
2021/05/31 11:54:44;;;;;;;0.00;0.00;;;;;;;;;;4945357;28;20026;-64
2021/05/31 11:57:13;;;;;;;0.00;0.00;;;;;;;;;;4963256;28;20034;-62
2021/05/31 11:59:43;;;;;;;0.00;0.00;;;;;;;;;;4964796;28;20037;-65
2021/05/31 12:02:13;;;;;;;0.20;0.20;;;;;;;;;;4946030;28;20050;-62
2021/05/31 12:04:41;;;;;;;0.85;0.10;;;;;;;;;;4949481;28;20042;-65
2021/05/31 12:07:10;;;;;;;0.00;0.00;;;;;;;;;;4965439;28;20065;-62
2021/05/31 12:09:38;;;;;;;0.05;0.05;;;;;;;;;;4946557;28;20073;-62
2021/05/31 12:12:04;;;;;;;0.10;0.10;;;;;;;;;;4948006;28;20824;-62
2021/05/31 12:14:41;;;;;;;0.00;0.00;;;;;;;;;;4965142;28;20129;-66
2021/05/31 12:17:13;;;;;;;0.35;0.35;;;;;;;;;;4960097;28;20037;-62
2021/05/31 12:19:39;;;;;;;0.00;0.00;;;;;;;;;;4946818;28;20042;-62
2021/05/31 12:22:10;;;;;;;0.25;0.25;;;;;;;;;;4949517;28;20047;-63
2021/05/31 12:24:43;;;;;;;0.10;0.10;;;;;;;;;;4949616;28;20122;-62
2021/05/31 12:27:08;;;;;;;0.00;0.00;;;;;;;;;;4960364;28;20034;-63
2021/05/31 12:29:38;;;;;;;0.03;0.03;;;;;;;;;;4964719;28;20397;-62
2021/05/31 12:32:10;;;;;;;0.05;0.05;;;;;;;;;;4958689;28;20632;-63
2021/05/31 12:34:37;;;;;;;0.80;0.60;;;;;;;;;;4961133;28;20049;-65
2021/05/31 12:37:04;;;;;;;4.00;1.48;;;;;;;;;;4932663;28;20126;-65
2021/05/31 12:39:30;;;;;;;0.00;0.00;;;;;;;;;;4947839;28;20117;-63
2021/05/31 12:41:59;;;;;;;0.08;0.08;;;;;;;;;;4961528;28;20038;-63
2021/05/31 12:44:28;;;;;;;0.08;0.08;;;;;;;;;;4945998;28;20026;-64
2021/05/31 12:47:06;;;;;;;0.25;0.20;;;;;;;;;;4934614;28;22006;-64
2021/05/31 12:49:51;;;;;;;0.10;0.10;;;;;;;;;;4959493;28;20068;-63
2021/05/31 12:52:25;;;;;;;0.20;0.20;;;;;;;;;;4961739;28;20031;-61
2021/05/31 12:55:14;;;;;;;0.00;0.00;;;;;;;;;;4960729;28;20034;-63
2021/05/31 12:57:46;;;;;;;0.55;0.03;;;;;;;;;;4945611;28;20103;-65
2021/05/31 13:00:16;;;;;;;0.15;0.15;;;;;;;;;;4961285;28;20034;-64
2021/05/31 13:02:43;;;;;;;0.05;0.05;;;;;;;;;;4929330;28;20026;-64
2021/05/31 13:05:13;;;;;;;0.00;0.00;;;;;;;;;;4946337;28;20035;-63
2021/05/31 13:07:40;;;;;;;0.30;0.28;;;;;;;;;;4944047;28;20036;-63
2021/05/31 13:10:08;;;;;;;0.30;0.30;;;;;;;;;;4945391;28;20096;-68
2021/05/31 13:12:34;;;;;;;0.00;0.00;;;;;;;;;;4943064;28;20045;-66
2021/05/31 13:15:03;;;;;;;0.20;0.10;;;;;;;;;;4943404;28;20034;-64
2021/05/31 13:17:30;;;;;;;0.17;0.17;;;;;;;;;;4945704;28;20846;-65
2021/05/31 13:20:16;;;;;;;0.17;0.17;;;;;;;;;;4943590;28;20062;-66
2021/05/31 13:23:02;;;;;;;0.10;0.10;;;;;;;;;;4960898;28;20512;-62
2021/05/31 13:25:29;;;;;;;1.08;0.28;;;;;;;;;;4943481;28;20065;-65
2021/05/31 13:28:06;;;;;;;0.05;0.05;;;;;;;;;;4927539;28;20149;-62
2021/05/31 13:30:34;;;;;;;0.00;0.00;;;;;;;;;;4962617;28;20041;-65
2021/05/31 13:33:03;;;;;;;0.30;0.30;;;;;;;;;;4951329;28;20041;-66
2021/05/31 13:35:32;;;;;;;0.00;0.00;;;;;;;;;;4964131;28;20034;-65
2021/05/31 13:38:01;;;;;;;0.00;0.00;;;;;;;;;;4962653;28;20037;-64
2021/05/31 13:40:40;;;;;;;0.00;0.00;;;;;;;;;;4949063;28;20130;-63
2021/05/31 13:43:12;;;;;;;0.10;0.10;;;;;;;;;;4946666;28;20041;-64
2021/05/31 13:45:39;;;;;;;1.07;0.20;;;;;;;;;;4942299;28;20180;-65
2021/05/31 13:48:07;;;;;;;0.00;0.00;;;;;;;;;;4962274;28;20285;-64
2021/05/31 13:50:42;;;;;;;0.00;0.00;;;;;;;;;;4961674;28;20051;-65
2021/05/31 13:53:08;;;;;;;;;;;;;;;;;;4965600;28;20137;-64
2021/05/31 13:55:40;;;;;;;0.00;0.00;;;;;;;;;;4940783;28;20044;-64
2021/05/31 13:58:25;;;;;;;0.00;0.00;;;;;;;;;;4955284;28;20066;-64
2021/05/31 14:00:51;;;;;;;0.80;0.05;;;;;;;;;;4955949;28;20394;-66
2021/05/31 14:03:23;;;;;;;0.00;0.00;;;;;;;;;;4946150;28;20047;-64
2021/05/31 14:05:54;;;;;;;0.00;0.00;;;;;;;;;;4943680;28;20058;-64
2021/05/31 14:08:23;;;;;;;0.00;0.00;;;;;;;;;;4954881;28;20624;-65
2021/05/31 14:10:50;;;;;;;0.00;0.00;;;;;;;;;;4944795;28;20034;-63
2021/05/31 14:13:21;;;;;;;2.25;0.10;;;;;;;;;;4944841;28;20045;-65
2021/05/31 14:15:50;;;;;;;0.00;0.00;;;;;;;;;;4915072;28;21105;-65
2021/05/31 14:18:18;;;;;;;0.08;0.08;;;;;;;;;;4941385;28;20051;-65
2021/05/31 14:20:44;;;;;;;0.05;0.05;;;;;;;;;;4952545;28;20046;-63
2021/05/31 14:23:13;;;;;;;0.03;0.03;;;;;;;;;;4941070;28;20035;-64
2021/05/31 14:25:41;;;;;;;0.30;0.10;;;;;;;;;;4938153;28;20038;-64
2021/05/31 14:28:10;;;;;;;0.00;0.00;;;;;;;;;;4954841;28;20041;-64
2021/05/31 14:30:36;;;;;;;1.75;0.65;;;;;;;;;;4960035;28;20505;-66
2021/05/31 14:33:08;;;;;;;0.40;0.40;;;;;;;;;;4961842;28;20038;-65
2021/05/31 14:35:34;;;;;;;0.10;0.10;;;;;;;;;;4950776;28;20127;-64
2021/05/31 14:38:04;;;;;;;1.77;0.52;;;;;;;;;;4949195;28;20030;-66
2021/05/31 14:40:35;;;;;;;0.00;0.00;;;;;;;;;;4951871;28;20481;-66
2021/05/31 14:43:04;;;;;;;0.00;0.00;;;;;;;;;;4964498;28;20121;-70
2021/05/31 14:45:34;;;;;;;0.00;0.00;;;;;;;;;;4951607;28;20034;-64
2021/05/31 14:48:02;;;;;;;0.10;0.10;;;;;;;;;;4964470;28;20065;-67
2021/05/31 14:50:33;;;;;;;0.17;0.03;;;;;;;;;;4947752;28;20519;-66
2021/05/31 14:53:01;;;;;;;0.15;0.15;;;;;;;;;;4946344;28;20070;-65
2021/05/31 14:55:30;;;;;;;0.00;0.00;;;;;;;;;;4946645;28;20344;-64
2021/05/31 14:57:56;;;;;;;0.38;0.20;;;;;;;;;;4950107;28;21038;-65
2021/05/31 15:00:29;;;;;;;0.20;0.10;;;;;;;;;;4949189;28;20023;-63
2021/05/31 15:02:59;;;;;;;0.20;0.20;;;;;;;;;;4946019;28;21059;-63
2021/05/31 15:05:25;;;;;;;1.33;1.33;;;;;;;;;;4949260;28;20027;-66
2021/05/31 15:07:51;;;;;;;0.52;0.50;;;;;;;;;;4947580;28;20097;-63